Time;durP1;ratioP1;P1;durP2;ratioP2;P2;SDS_P1;SDS_P2;PMS_P1;PMS_P2;Temp;Humidity;BMP_temperature;BMP_pressure;BME280_temperature;BME280_humidity;BME280_pressure;Samples;Min_cycle;Max_cycle;Signal;HPM_P1;HPM_P2
2024/02/03 00:01:46;;;;;;;4.85;2.00;;;;;;;21.60;37.07;102225.59;4987745;28;20121;-68
2024/02/03 00:04:12;;;;;;;3.30;1.80;;;;;;;21.59;36.93;102229.25;4982443;28;20054;-68
2024/02/03 00:06:37;;;;;;;4.38;2.08;;;;;;;21.58;37.21;102216.97;4991724;28;20084;-69
2024/02/03 00:09:05;;;;;;;3.08;1.90;;;;;;;21.58;37.30;102218.81;4986803;28;20042;-68
2024/02/03 00:11:31;;;;;;;4.10;2.45;;;;;;;21.56;37.03;102223.44;4981174;28;20049;-68
2024/02/03 00:13:57;;;;;;;3.35;1.95;;;;;;;21.54;36.94;102228.03;4980716;28;20707;-69
2024/02/03 00:16:22;;;;;;;4.55;2.20;;;;;;;21.53;37.25;102221.91;5001872;28;20038;-69
2024/02/03 00:18:48;;;;;;;3.70;1.92;;;;;;;21.47;37.13;102214.59;4988773;28;20046;-69
2024/02/03 00:21:14;;;;;;;3.15;1.75;;;;;;;21.50;37.15;102222.22;4996853;28;20038;-69
2024/02/03 00:23:39;;;;;;;4.60;2.00;;;;;;;21.48;37.17;102218.91;4989177;28;20072;-68
2024/02/03 00:26:05;;;;;;;7.20;2.38;;;;;;;21.41;37.20;102197.50;4984198;28;20045;-69
2024/02/03 00:28:30;;;;;;;4.88;2.22;;;;;;;21.49;37.00;102203.84;4996735;28;20046;-69
2024/02/03 00:30:56;;;;;;;5.57;2.35;;;;;;;21.37;37.32;102198.81;4986663;28;20752;-68
2024/02/03 00:33:21;;;;;;;4.85;2.08;;;;;;;21.27;37.05;102181.34;4984866;28;20499;-69
2024/02/03 00:35:47;;;;;;;3.45;1.95;;;;;;;21.35;37.23;102184.03;4986397;28;20667;-69
2024/02/03 00:38:12;;;;;;;2.90;1.77;;;;;;;21.28;37.15;102177.72;5001502;28;20049;-69
2024/02/03 00:40:38;;;;;;;4.32;1.80;;;;;;;21.32;37.23;102184.34;5004516;28;20042;-68
2024/02/03 00:43:03;;;;;;;2.85;1.85;;;;;;;21.40;37.36;102209.09;4989786;28;20030;-69
2024/02/03 00:45:29;;;;;;;2.83;1.88;;;;;;;21.28;37.17;102191.78;4983093;28;20030;-69
2024/02/03 00:47:55;;;;;;;7.05;1.80;;;;;;;21.40;37.34;102213.56;5002874;28;20042;-69
2024/02/03 00:50:20;;;;;;;3.05;1.85;;;;;;;21.37;37.05;102201.47;4997939;28;20049;-68
2024/02/03 00:52:46;;;;;;;2.63;1.92;;;;;;;21.38;37.35;102204.94;4988860;28;20045;-69
2024/02/03 00:55:11;;;;;;;4.10;2.00;;;;;;;21.25;37.27;102178.03;4989672;28;20053;-69
2024/02/03 00:57:37;;;;;;;2.75;1.73;;;;;;;21.31;37.36;102182.69;4997420;28;20506;-69
2024/02/03 01:00:05;;;;;;;2.40;1.50;;;;;;;21.36;37.08;102206.91;4990688;28;20049;-68
2024/02/03 01:02:30;;;;;;;4.00;2.53;;;;;;;21.34;37.20;102193.81;4987324;28;20165;-68
2024/02/03 01:04:56;;;;;;;4.30;2.10;;;;;;;21.32;37.15;102205.56;4986928;28;20034;-68
2024/02/03 01:07:21;;;;;;;3.30;1.55;;;;;;;21.24;37.30;102195.75;4982752;28;20065;-68
2024/02/03 01:09:47;;;;;;;4.32;2.00;;;;;;;21.21;37.44;102188.09;5002458;28;20038;-68
2024/02/03 01:12:12;;;;;;;3.08;1.70;;;;;;;21.27;37.16;102203.38;4987157;28;20544;-69
2024/02/03 01:14:38;;;;;;;4.38;2.00;;;;;;;21.28;37.31;102207.69;5000570;28;20050;-68
2024/02/03 01:17:04;;;;;;;4.22;1.88;;;;;;;21.29;37.11;102208.53;4999236;28;20030;-68
2024/02/03 01:19:31;;;;;;;3.55;2.00;;;;;;;21.20;37.17;102194.38;4984492;28;20051;-68
2024/02/03 01:21:56;;;;;;;2.83;1.70;;;;;;;21.03;37.11;102166.94;4992428;28;20592;-68
2024/02/03 01:24:22;;;;;;;2.50;1.60;;;;;;;21.25;37.45;102193.94;4983652;28;20031;-68
2024/02/03 01:26:47;;;;;;;2.55;1.80;;;;;;;21.28;37.52;102202.38;4977645;28;20050;-69
2024/02/03 01:29:13;;;;;;;3.72;2.00;;;;;;;21.26;37.28;102209.66;4984535;28;20046;-68
2024/02/03 01:31:39;;;;;;;4.28;1.73;;;;;;;21.25;37.47;102204.53;4989339;28;20430;-68
2024/02/03 01:34:05;;;;;;;3.42;1.70;;;;;;;21.12;37.33;102184.53;4984437;28;20050;-69
2024/02/03 01:36:31;;;;;;;4.25;1.90;;;;;;;21.16;37.37;102198.28;4982673;28;20066;-68
2024/02/03 01:38:56;;;;;;;5.35;2.30;;;;;;;21.25;37.18;102215.13;4982246;28;20042;-69
2024/02/03 01:41:22;;;;;;;2.35;1.48;;;;;;;21.22;37.53;102210.09;4980969;28;20105;-68
2024/02/03 01:43:48;;;;;;;3.40;1.65;;;;;;;21.17;37.09;102199.13;4979356;28;20093;-68
2024/02/03 01:46:15;;;;;;;3.88;2.00;;;;;;;21.13;37.38;102202.09;4986872;28;20035;-68
2024/02/03 01:48:41;;;;;;;3.05;2.00;;;;;;;21.09;37.21;102214.00;4985422;28;20343;-69
2024/02/03 01:51:09;;;;;;;3.25;1.80;;;;;;;21.20;37.21;102239.41;4983362;28;20144;-69
2024/02/03 01:53:34;;;;;;;3.50;1.65;;;;;;;21.19;37.28;102228.97;4987238;28;20042;-69
2024/02/03 01:56:00;;;;;;;4.03;1.58;;;;;;;21.17;37.39;102231.75;4981839;28;20049;-68
2024/02/03 01:58:26;;;;;;;1.98;1.30;;;;;;;21.17;37.30;102231.75;4997979;28;20081;-69
2024/02/03 02:00:53;;;;;;;3.25;1.90;;;;;;;21.17;37.48;102222.97;4983221;28;20049;-69
2024/02/03 02:03:19;;;;;;;5.50;2.15;;;;;;;21.17;37.38;102215.84;4987829;28;20050;-68
2024/02/03 02:05:45;;;;;;;1.95;1.52;;;;;;;21.16;37.38;102221.31;4986750;28;20046;-68
2024/02/03 02:08:11;;;;;;;1.65;1.38;;;;;;;21.08;37.52;102206.19;4986876;28;20065;-69
2024/02/03 02:10:37;;;;;;;2.42;1.55;;;;;;;21.15;37.34;102217.81;4992177;28;20084;-69
2024/02/03 02:13:03;;;;;;;2.70;1.70;;;;;;;20.94;37.19;102178.44;4989196;28;20042;-69
2024/02/03 02:15:29;;;;;;;1.77;1.13;;;;;;;21.06;37.48;102200.22;4991453;28;20496;-69
2024/02/03 02:17:58;;;;;;;2.38;1.50;;;;;;;21.13;37.48;102195.97;4994799;28;20048;-68
2024/02/03 02:20:24;;;;;;;2.33;1.60;;;;;;;21.11;37.41;102196.13;4987021;28;20623;-69
2024/02/03 02:22:49;;;;;;;3.10;1.60;;;;;;;21.06;37.31;102198.41;4982643;28;20046;-69
2024/02/03 02:25:15;;;;;;;1.38;1.05;;;;;;;21.06;37.38;102187.81;4988216;28;21087;-68
2024/02/03 02:27:41;;;;;;;1.83;1.50;;;;;;;21.11;37.50;102190.81;4985543;28;20042;-68
2024/02/03 02:30:07;;;;;;;2.90;1.63;;;;;;;21.10;37.49;102188.34;4990577;28;20077;-68
2024/02/03 02:32:32;;;;;;;4.65;1.95;;;;;;;20.84;37.38;102158.38;4990765;28;20556;-68
2024/02/03 02:34:58;;;;;;;2.40;1.45;;;;;;;21.06;37.53;102193.13;4990312;28;20530;-69
2024/02/03 02:37:24;;;;;;;2.60;1.60;;;;;;;21.03;37.67;102184.66;4998555;28;20033;-67
2024/02/03 02:39:49;;;;;;;5.88;1.65;;;;;;;21.03;37.37;102198.72;4992601;28;20168;-69
2024/02/03 02:42:15;;;;;;;3.15;1.52;;;;;;;20.86;37.58;102165.16;4982882;28;20049;-69
2024/02/03 02:44:41;;;;;;;3.13;1.67;;;;;;;21.05;37.67;102196.75;4992277;28;20089;-68
2024/02/03 02:47:07;;;;;;;4.57;1.63;;;;;;;20.97;37.57;102180.78;4986153;28;20497;-68
2024/02/03 02:49:33;;;;;;;3.50;1.73;;;;;;;20.80;37.64;102152.53;4989694;28;20060;-69
2024/02/03 02:51:58;;;;;;;3.65;1.40;;;;;;;20.94;37.54;102181.09;4988700;28;20076;-69
2024/02/03 02:54:24;;;;;;;2.30;1.33;;;;;;;20.95;37.51;102187.22;4980854;28;20081;-69
2024/02/03 02:56:50;;;;;;;3.65;1.63;;;;;;;21.01;37.39;102192.75;5003720;28;20045;-68
2024/02/03 02:59:16;;;;;;;1.98;1.45;;;;;;;21.01;37.40;102195.41;4987670;28;20388;-69
2024/02/03 03:01:42;;;;;;;4.82;1.60;;;;;;;20.97;37.44;102194.03;4990569;28;20042;-69
2024/02/03 03:04:08;;;;;;;4.72;1.42;;;;;;;21.00;37.36;102198.19;4990326;28;20137;-69
2024/02/03 03:06:34;;;;;;;2.60;1.42;;;;;;;20.94;37.49;102186.41;4986782;28;20132;-69
2024/02/03 03:09:00;;;;;;;2.58;1.27;;;;;;;20.77;37.54;102153.66;4985793;28;20049;-69
2024/02/03 03:11:25;;;;;;;1.83;1.25;;;;;;;20.94;37.52;102186.41;4994450;28;20048;-69
2024/02/03 03:13:51;;;;;;;2.25;1.45;;;;;;;20.97;37.60;102190.53;4994963;28;20113;-69
2024/02/03 03:16:16;;;;;;;2.58;1.40;;;;;;;20.93;37.50;102182.09;5005812;28;20100;-69
2024/02/03 03:18:42;;;;;;;1.58;1.48;;;;;;;20.87;37.76;102174.78;4988973;28;20034;-69
2024/02/03 03:21:08;;;;;;;2.42;1.15;;;;;;;20.85;37.55;102176.75;4981191;28;20049;-69
2024/02/03 03:23:34;;;;;;;4.07;1.38;;;;;;;20.94;37.67;102193.50;5001547;28;20768;-69
2024/02/03 03:26:00;;;;;;;1.80;1.40;;;;;;;20.92;37.58;102190.19;4985759;28;20688;-69
2024/02/03 03:28:26;;;;;;;2.60;1.33;;;;;;;20.91;37.50;102188.53;5003949;28;20166;-69
2024/02/03 03:30:52;;;;;;;3.15;1.50;;;;;;;20.86;37.76;102177.56;4988914;28;20117;-69
2024/02/03 03:33:17;;;;;;;3.40;1.45;;;;;;;20.91;37.76;102189.34;5002269;28;20062;-69
2024/02/03 03:35:43;;;;;;;2.17;1.30;;;;;;;20.92;37.62;102184.88;4989557;28;20034;-69
2024/02/03 03:38:10;;;;;;;2.20;1.45;;;;;;;20.83;37.79;102191.13;4986093;28;20121;-69
2024/02/03 03:40:37;;;;;;;2.53;1.20;;;;;;;20.80;37.53;102163.94;5005685;28;20111;-69
2024/02/03 03:43:04;;;;;;;2.47;1.20;;;;;;;20.77;37.67;102166.06;4981846;28;20096;-69
2024/02/03 03:45:30;;;;;;;2.58;1.48;;;;;;;20.88;37.80;102183.53;4994289;28;20069;-69
2024/02/03 03:47:57;;;;;;;2.70;1.27;;;;;;;20.85;37.47;102184.69;4994612;28;20125;-69
2024/02/03 03:50:22;;;;;;;2.28;1.13;;;;;;;20.82;37.57;102163.78;4992567;28;20041;-69
2024/02/03 03:52:48;;;;;;;2.13;1.40;;;;;;;20.79;37.63;102169.41;5007461;28;21161;-69
2024/02/03 03:55:15;;;;;;;1.55;1.23;;;;;;;20.85;37.82;102178.56;4994637;28;20054;-68
2024/02/03 03:57:41;;;;;;;1.75;1.50;;;;;;;20.84;37.78;102192.78;4994399;28;20141;-69
2024/02/03 04:00:12;;;;;;;1.48;0.98;;;;;;;20.71;37.67;102162.22;4981262;28;20053;-69
2024/02/03 04:02:39;;;;;;;2.70;1.23;;;;;;;20.76;37.62;102162.59;4983881;28;20049;-68
2024/02/03 04:05:06;;;;;;;2.40;1.15;;;;;;;20.76;37.76;102180.28;4987095;28;20042;-69
2024/02/03 04:07:32;;;;;;;1.35;1.02;;;;;;;20.77;37.81;102181.97;4992360;28;20085;-69
2024/02/03 04:09:57;;;;;;;0.82;0.70;;;;;;;20.77;37.85;102177.50;5000081;28;20059;-69
2024/02/03 04:12:23;;;;;;;2.28;1.20;;;;;;;20.80;37.74;102181.66;4989873;28;20046;-69
2024/02/03 04:14:48;;;;;;;2.92;1.10;;;;;;;20.80;37.66;102192.22;4990868;28;20049;-69
2024/02/03 04:17:15;;;;;;;3.40;1.17;;;;;;;20.79;37.84;102191.41;4985731;28;20045;-69
2024/02/03 04:19:41;;;;;;;1.25;0.95;;;;;;;20.75;37.75;102190.06;4984299;28;20065;-69
2024/02/03 04:22:08;;;;;;;1.27;1.10;;;;;;;20.76;37.76;102202.31;5001480;28;20363;-69
2024/02/03 04:24:34;;;;;;;1.58;1.00;;;;;;;20.70;37.78;102188.84;4989075;28;20157;-69
2024/02/03 04:27:00;;;;;;;3.30;1.52;;;;;;;20.75;37.64;102199.81;4990118;28;20038;-69
2024/02/03 04:29:25;;;;;;;2.13;1.25;;;;;;;20.74;37.85;102206.09;5002757;28;20084;-69
2024/02/03 04:31:51;;;;;;;3.78;1.17;;;;;;;20.70;37.80;102194.16;5004898;28;20366;-69
2024/02/03 04:34:20;;;;;;;1.83;1.08;;;;;;;20.61;37.82;102185.28;4982417;28;20395;-69
2024/02/03 04:36:46;;;;;;;1.85;1.20;;;;;;;20.71;37.89;102190.53;4990092;28;20038;-69
2024/02/03 04:39:13;;;;;;;3.25;1.27;;;;;;;20.74;37.68;102201.63;4982549;28;20049;-69
2024/02/03 04:41:38;;;;;;;2.65;1.45;;;;;;;20.68;37.94;102196.13;4986206;28;20046;-69
2024/02/03 04:44:04;;;;;;;1.13;1.02;;;;;;;20.63;37.94;102187.78;4983282;28;20054;-69
2024/02/03 04:46:30;;;;;;;2.03;1.27;;;;;;;20.71;38.07;102198.47;5000029;28;20052;-69
2024/02/03 04:48:56;;;;;;;1.00;0.90;;;;;;;20.71;37.96;102201.09;4989501;28;20034;-69
2024/02/03 04:51:21;;;;;;;1.77;1.10;;;;;;;20.41;37.89;102152.88;4985546;28;20125;-69
2024/02/03 04:53:47;;;;;;;1.73;0.90;;;;;;;20.71;37.71;102198.47;4985759;28;20038;-69
2024/02/03 04:56:12;;;;;;;1.58;1.13;;;;;;;20.67;37.61;102184.72;4985926;28;20045;-68
2024/02/03 04:58:38;;;;;;;2.42;1.20;;;;;;;20.67;37.83;102191.81;4991973;28;20050;-68
2024/02/03 05:01:04;;;;;;;0.85;0.85;;;;;;;20.70;37.70;102204.75;4987096;28;20049;-68
2024/02/03 05:03:33;;;;;;;1.67;0.90;;;;;;;20.62;37.70;102180.81;4988822;28;20037;-69
2024/02/03 05:06:05;;;;;;;1.75;1.00;;;;;;;20.60;37.95;102180.97;4991334;28;20146;-69
2024/02/03 05:08:31;;;;;;;1.17;1.02;;;;;;;20.68;37.80;102190.84;4989100;28;20042;-69
2024/02/03 05:10:58;;;;;;;1.65;0.90;;;;;;;20.68;38.10;102193.47;5000486;28;20037;-69
2024/02/03 05:13:24;;;;;;;1.95;1.08;;;;;;;20.67;37.81;102199.75;4987821;28;20839;-68
2024/02/03 05:15:49;;;;;;;3.05;1.20;;;;;;;20.67;37.83;102194.47;4984013;28;20046;-68
2024/02/03 05:18:15;;;;;;;1.90;1.13;;;;;;;20.68;37.81;102193.47;4982750;28;20042;-69
2024/02/03 05:20:40;;;;;;;1.40;0.98;;;;;;;20.67;37.88;102182.06;4981043;28;20046;-68
2024/02/03 05:23:06;;;;;;;3.03;1.13;;;;;;;20.67;37.76;102192.66;4988575;28;20065;-68
2024/02/03 05:25:31;;;;;;;1.98;1.20;;;;;;;20.62;37.85;102171.06;4998226;28;20411;-69
2024/02/03 05:27:57;;;;;;;2.58;1.00;;;;;;;20.59;37.80;102160.78;4985582;28;20045;-69
2024/02/03 05:30:22;;;;;;;1.50;1.20;;;;;;;20.67;37.69;102175.94;4981027;28;20060;-69
2024/02/03 05:32:48;;;;;;;2.72;1.20;;;;;;;20.60;37.90;102165.09;5002843;28;20073;-68
2024/02/03 05:35:14;;;;;;;1.25;1.05;;;;;;;20.66;37.94;102183.03;4986401;28;20129;-69
2024/02/03 05:37:39;;;;;;;1.60;0.95;;;;;;;20.64;38.00;102177.03;4981334;28;20038;-69
2024/02/03 05:40:05;;;;;;;1.67;1.27;;;;;;;20.58;37.89;102167.06;4988480;28;20034;-68
2024/02/03 05:42:31;;;;;;;1.58;1.20;;;;;;;20.59;37.97;102170.56;5000589;28;20117;-69
2024/02/03 05:44:58;;;;;;;1.23;0.95;;;;;;;20.45;37.93;102141.00;4990690;28;20034;-68
2024/02/03 05:47:23;;;;;;;2.55;0.90;;;;;;;20.62;37.87;102170.25;4983984;28;20046;-69
2024/02/03 05:49:49;;;;;;;1.77;1.23;;;;;;;20.62;37.88;102173.72;4978785;28;20219;-68
2024/02/03 05:52:14;;;;;;;2.63;1.27;;;;;;;20.55;37.94;102170.03;4980643;28;20451;-69
2024/02/03 05:54:40;;;;;;;2.72;1.30;;;;;;;20.56;38.03;102168.22;4987938;28;20034;-69
2024/02/03 05:57:10;;;;;;;1.52;0.82;;;;;;;20.59;37.80;102173.19;4987822;28;20042;-69
2024/02/03 05:59:35;;;;;;;;;;;;;;;20.61;38.00;102169.41;4997719;28;20041;-68
2024/02/03 06:02:00;;;;;;;2.40;1.23;;;;;;;20.57;37.85;102167.22;4985979;28;19926;-69
2024/02/03 06:04:26;;;;;;;2.08;0.80;;;;;;;20.57;37.93;102160.13;4980406;28;20458;-69
2024/02/03 06:06:51;;;;;;;1.52;1.20;;;;;;;20.37;37.98;102125.03;4985473;28;20133;-69
2024/02/03 06:09:17;;;;;;;1.80;0.90;;;;;;;20.60;37.85;102159.81;4982117;28;20053;-68
2024/02/03 06:11:43;;;;;;;1.88;1.08;;;;;;;20.49;38.12;102152.97;5001941;28;20034;-69
2024/02/03 06:14:08;;;;;;;1.38;1.00;;;;;;;20.56;37.89;102160.28;4982328;28;21027;-68
2024/02/03 06:16:34;;;;;;;1.95;1.33;;;;;;;20.63;37.97;102175.38;5000202;28;20041;-68
2024/02/03 06:18:59;;;;;;;0.88;0.80;;;;;;;20.62;38.14;102180.81;4984135;28;20042;-69
2024/02/03 06:21:25;;;;;;;2.70;1.05;;;;;;;20.61;38.03;102173.88;4988603;28;20054;-68
2024/02/03 06:23:50;;;;;;;1.80;1.00;;;;;;;20.59;38.06;102166.09;4977855;28;20109;-68
2024/02/03 06:26:16;;;;;;;1.95;1.15;;;;;;;20.54;37.97;102156.94;5001791;28;20046;-68
2024/02/03 06:28:41;;;;;;;1.67;0.95;;;;;;;20.59;38.01;102159.97;4997828;28;20038;-69
2024/02/03 06:31:07;;;;;;;1.08;0.80;;;;;;;20.61;38.02;102165.94;4979113;28;20045;-68
2024/02/03 06:33:32;;;;;;;1.83;0.90;;;;;;;20.49;38.15;102155.59;4984896;28;20459;-68
2024/02/03 06:36:00;;;;;;;1.38;0.90;;;;;;;20.56;38.08;102160.28;4987520;28;20108;-69
2024/02/03 06:38:27;;;;;;;0.82;0.70;;;;;;;20.51;38.19;102155.44;4984590;28;20046;-68
2024/02/03 06:40:53;;;;;;;1.80;0.95;;;;;;;20.47;38.16;102147.00;4985076;28;20046;-68
2024/02/03 06:43:18;;;;;;;2.53;1.35;;;;;;;20.55;38.18;102154.16;4999617;28;20041;-68
2024/02/03 06:45:44;;;;;;;0.73;0.73;;;;;;;20.60;38.22;102166.91;4994323;28;20429;-68
2024/02/03 06:48:09;;;;;;;1.65;0.90;;;;;;;20.56;38.20;102166.41;4987735;28;20037;-69
2024/02/03 06:50:35;;;;;;;1.15;1.00;;;;;;;20.58;38.06;102171.53;4991947;28;20042;-68
2024/02/03 06:53:00;;;;;;;1.23;1.17;;;;;;;20.47;38.02;102162.03;4991039;28;20043;-68
2024/02/03 06:55:26;;;;;;;1.90;0.70;;;;;;;20.60;38.07;102180.16;4994265;28;20471;-68
2024/02/03 06:57:51;;;;;;;1.88;0.93;;;;;;;20.31;38.10;102141.50;4984258;28;20034;-68
2024/02/03 07:00:17;;;;;;;1.40;1.00;;;;;;;20.54;38.10;102178.13;5008033;28;20045;-68
2024/02/03 07:02:43;;;;;;;1.70;1.05;;;;;;;20.58;38.15;102182.13;4988439;28;20034;-68
2024/02/03 07:05:09;;;;;;;2.05;1.17;;;;;;;20.51;38.07;102164.22;4989541;28;20478;-69
2024/02/03 07:07:34;;;;;;;0.88;0.85;;;;;;;20.58;38.23;102184.78;4985049;28;20332;-68
2024/02/03 07:10:00;;;;;;;3.35;1.13;;;;;;;20.54;38.03;102181.59;4986588;28;20043;-68
2024/02/03 07:12:27;;;;;;;2.08;1.25;;;;;;;20.50;38.22;102172.31;4987919;28;20035;-69
2024/02/03 07:14:53;;;;;;;1.70;1.25;;;;;;;20.51;38.15;102174.81;4990751;28;20057;-68
2024/02/03 07:17:18;;;;;;;1.30;0.90;;;;;;;20.54;38.07;102175.47;4984491;28;20034;-68
2024/02/03 07:19:44;;;;;;;1.85;1.23;;;;;;;20.81;37.74;102196.53;4988366;28;20052;-69
2024/02/03 07:22:09;;;;;;;2.60;1.10;;;;;;;21.16;37.41;102179.75;4988868;28;20034;-68
2024/02/03 07:24:38;;;;;;;1.10;0.93;;;;;;;21.35;37.04;102158.38;4991521;28;20791;-69
2024/02/03 07:27:04;;;;;;;0.73;0.50;;;;;;;21.51;36.74;102178.81;4987842;28;20034;-69
2024/02/03 07:29:30;;;;;;;1.05;0.95;;;;;;;21.47;36.90;102169.53;4985867;28;20656;-69
2024/02/03 07:32:00;;;;;;;1.85;1.10;;;;;;;21.50;37.19;102176.34;4991846;28;20061;-69
2024/02/03 07:34:26;;;;;;;3.03;1.27;;;;;;;21.43;37.19;102184.09;4987450;28;20633;-69
2024/02/03 07:36:52;;;;;;;0.95;0.65;;;;;;;21.40;37.09;102184.41;4985864;28;20053;-68
2024/02/03 07:39:17;;;;;;;2.88;1.08;;;;;;;21.26;37.40;102171.75;5004814;28;20058;-68
2024/02/03 07:41:43;;;;;;;1.90;1.17;;;;;;;21.27;37.46;102179.53;4987557;28;20046;-68
2024/02/03 07:44:09;;;;;;;2.00;1.48;;;;;;;21.11;37.27;102142.31;4990615;28;20041;-68
2024/02/03 07:46:34;;;;;;;1.55;0.85;;;;;;;21.30;37.47;102175.75;5002817;28;20402;-69
2024/02/03 07:49:00;;;;;;;1.33;0.95;;;;;;;21.05;37.47;102141.13;5006105;28;20061;-69
2024/02/03 07:51:25;;;;;;;1.30;0.85;;;;;;;21.30;37.40;102191.63;4980036;28;20042;-68
2024/02/03 07:53:51;;;;;;;1.85;1.33;;;;;;;21.22;37.41;102183.63;4988675;28;20049;-68
2024/02/03 07:56:16;;;;;;;2.13;0.95;;;;;;;21.23;37.38;102183.47;4981066;28;20058;-69
2024/02/03 07:58:42;;;;;;;1.45;1.00;;;;;;;21.24;37.68;102187.81;4983365;28;20049;-68
2024/02/03 08:01:07;;;;;;;1.50;1.02;;;;;;;21.10;37.56;102165.31;4988190;28;20313;-69
2024/02/03 08:03:33;;;;;;;2.08;1.33;;;;;;;21.16;37.60;102184.22;4983781;28;20038;-68
2024/02/03 08:06:00;;;;;;;1.58;0.90;;;;;;;21.13;37.66;102185.38;4998108;28;20046;-68
2024/02/03 08:08:25;;;;;;;3.50;1.38;;;;;;;21.15;37.72;102186.03;5002331;28;20065;-68
2024/02/03 08:10:51;;;;;;;2.13;0.95;;;;;;;21.07;37.97;102176.22;5003394;28;20049;-68
2024/02/03 08:13:16;;;;;;;1.10;0.70;;;;;;;21.06;37.99;102184.34;4985065;28;20359;-69
2024/02/03 08:15:42;;;;;;;2.15;1.05;;;;;;;21.10;37.93;102183.03;4980901;28;20049;-69
2024/02/03 08:18:07;;;;;;;1.90;1.10;;;;;;;21.10;37.70;102194.47;4981357;28;20117;-69
2024/02/03 08:20:34;;;;;;;3.72;1.40;;;;;;;21.10;37.89;102206.88;4989688;28;20038;-68
2024/02/03 08:22:59;;;;;;;1.40;0.70;;;;;;;21.08;37.89;102193.78;4981185;28;20042;-68
2024/02/03 08:25:26;;;;;;;1.48;1.10;;;;;;;21.05;37.74;102185.31;4984129;28;20035;-69
2024/02/03 08:27:51;;;;;;;1.83;1.25;;;;;;;21.02;37.77;102183.00;4998166;28;20053;-69
2024/02/03 08:30:17;;;;;;;1.92;1.13;;;;;;;21.02;38.04;102188.28;4981126;28;20039;-69
2024/02/03 08:32:42;;;;;;;1.73;1.00;;;;;;;21.08;37.95;102188.50;4989593;28;20049;-68
2024/02/03 08:35:08;;;;;;;3.03;1.20;;;;;;;20.99;38.06;102175.34;4989821;28;20058;-69
2024/02/03 08:37:33;;;;;;;1.30;0.93;;;;;;;20.98;37.78;102184.25;5001684;28;20034;-68
2024/02/03 08:39:59;;;;;;;2.30;1.20;;;;;;;21.07;37.96;102199.25;4983737;28;20576;-68
2024/02/03 08:42:24;;;;;;;1.08;0.98;;;;;;;21.06;37.88;102197.56;4991901;28;20047;-68
2024/02/03 08:44:50;;;;;;;1.70;0.90;;;;;;;20.81;38.55;102207.13;5000756;28;20050;-67
2024/02/03 08:47:15;;;;;;;1.92;1.05;;;;;;;21.02;38.07;102201.53;5009861;28;20053;-68
2024/02/03 08:49:51;;;;;;;5.20;1.00;;;;;;;21.03;37.93;102204.03;4974502;28;20473;-68
2024/02/03 08:52:17;;;;;;;2.70;1.40;;;;;;;21.03;38.34;102204.03;4985785;28;20460;-68
2024/02/03 08:54:42;;;;;;;1.95;1.05;;;;;;;21.01;38.65;102213.94;4974541;28;20051;-67
2024/02/03 08:57:08;;;;;;;2.45;1.33;;;;;;;21.01;38.51;102207.81;4993410;28;20030;-65
2024/02/03 08:59:33;;;;;;;3.90;1.25;;;;;;;21.01;38.65;102194.56;4981330;28;20045;-65
2024/02/03 09:01:59;;;;;;;2.78;1.08;;;;;;;21.01;38.43;102190.09;4981844;28;20054;-65
2024/02/03 09:04:25;;;;;;;3.17;1.20;;;;;;;21.02;38.60;102198.88;4983315;28;20073;-65
2024/02/03 09:06:50;;;;;;;4.88;1.30;;;;;;;20.91;38.56;102189.34;4994314;28;20459;-65
2024/02/03 09:09:16;;;;;;;2.05;1.52;;;;;;;21.02;38.35;102198.88;4987634;28;20092;-65
2024/02/03 09:11:41;;;;;;;2.47;0.80;;;;;;;20.98;38.48;102198.34;4982544;28;20451;-65
2024/02/03 09:14:06;;;;;;;3.13;1.58;;;;;;;20.96;38.33;102204.78;4975840;28;20042;-65
2024/02/03 09:16:32;;;;;;;3.72;1.67;;;;;;;20.99;38.31;102210.59;4985478;28;20443;-65
2024/02/03 09:18:58;;;;;;;1.98;1.10;;;;;;;20.83;38.54;102196.41;4987817;28;20121;-65
2024/02/03 09:21:23;;;;;;;3.38;1.30;;;;;;;21.01;38.56;102205.16;4982074;28;20042;-65
2024/02/03 09:23:49;;;;;;;2.50;1.20;;;;;;;20.95;38.50;102206.59;4990288;28;20045;-65
2024/02/03 09:26:14;;;;;;;3.17;1.58;;;;;;;20.89;38.32;102195.78;4984818;28;20046;-64
2024/02/03 09:28:40;;;;;;;3.20;1.23;;;;;;;20.96;38.55;102205.59;4997842;28;20137;-65
2024/02/03 09:31:05;;;;;;;1.70;1.02;;;;;;;20.97;38.31;102217.84;5002775;28;20045;-66
2024/02/03 09:33:31;;;;;;;2.25;1.30;;;;;;;20.91;38.37;102210.53;4987970;28;20042;-66
2024/02/03 09:35:57;;;;;;;2.05;1.20;;;;;;;20.98;38.32;102208.09;4983444;28;20030;-66
2024/02/03 09:38:22;;;;;;;2.17;1.20;;;;;;;20.99;38.23;102202.66;4982172;28;20047;-65
2024/02/03 09:40:48;;;;;;;2.45;1.13;;;;;;;20.96;38.23;102186.25;4987212;28;20073;-65
2024/02/03 09:43:14;;;;;;;1.60;1.13;;;;;;;21.22;37.73;102204.81;4986380;28;20042;-65
2024/02/03 09:45:40;;;;;;;1.13;0.80;;;;;;;21.25;37.94;102204.53;4987594;28;20414;-65
2024/02/03 09:48:06;;;;;;;3.40;1.17;;;;;;;21.24;37.92;102200.19;4982224;28;20033;-65
2024/02/03 09:50:32;;;;;;;3.47;1.15;;;;;;;21.20;38.00;102207.63;4982381;28;20046;-65
2024/02/03 09:53:00;;;;;;;2.65;1.20;;;;;;;21.22;37.79;102202.16;4986381;28;20034;-65
2024/02/03 09:55:26;;;;;;;1.98;1.23;;;;;;;21.16;38.01;102205.41;4982944;28;20702;-65
2024/02/03 09:57:52;;;;;;;2.13;1.05;;;;;;;21.21;38.08;102211.94;4984577;28;20026;-65
2024/02/03 10:00:20;;;;;;;0.98;0.88;;;;;;;21.23;38.01;102215.25;4982961;28;20064;-66
2024/02/03 10:02:47;;;;;;;2.08;1.15;;;;;;;21.20;38.05;102209.44;4983373;28;20042;-65
2024/02/03 10:05:13;;;;;;;1.85;0.90;;;;;;;21.17;38.02;102212.38;4983826;28;20123;-65
2024/02/03 10:07:38;;;;;;;1.00;0.90;;;;;;;20.98;37.84;102184.25;4999868;28;20038;-65
2024/02/03 10:10:08;;;;;;;2.30;1.08;;;;;;;21.16;38.15;102216.00;4985631;28;20085;-65
2024/02/03 10:12:34;;;;;;;;;;;;;;;21.19;38.01;102218.38;4986651;28;20086;-66
2024/02/03 10:15:02;;;;;;;4.57;1.77;;;;;;;21.20;38.40;102212.09;4990786;28;19921;-68
2024/02/03 10:17:28;;;;;;;9.13;1.70;;;;;;;21.35;38.04;102221.97;4986817;28;20039;-64
2024/02/03 10:19:54;;;;;;;2.75;1.45;;;;;;;21.66;37.75;102209.06;4985316;28;20042;-66
2024/02/03 10:22:19;;;;;;;2.70;1.10;;;;;;;22.97;35.62;102225.31;4926858;28;20117;-66
2024/02/03 10:24:45;;;;;;;6.20;1.88;;;;;;;23.33;34.89;102209.81;4988010;28;20475;-66
2024/02/03 10:27:10;;;;;;;5.15;1.77;;;;;;;23.24;34.98;102190.44;4983752;28;20046;-70
2024/02/03 10:29:36;;;;;;;3.10;1.63;;;;;;;23.31;35.33;102222.47;4995527;28;20383;-66
2024/02/03 10:32:02;;;;;;;3.90;1.85;;;;;;;23.43;35.11;102223.78;4991428;28;20041;-69
2024/02/03 10:34:30;;;;;;;2.65;1.70;;;;;;;23.15;35.79;102232.09;4984823;28;20572;-67
2024/02/03 10:36:55;;;;;;;3.72;1.60;;;;;;;23.22;35.63;102240.25;4941825;28;20031;-66
2024/02/03 10:39:21;;;;;;;3.03;1.50;;;;;;;23.08;36.25;102232.97;4975658;28;20141;-67
2024/02/03 10:41:47;;;;;;;3.00;1.30;;;;;;;23.09;36.17;102229.31;4936517;28;20120;-67
2024/02/03 10:44:22;;;;;;;2.60;1.35;;;;;;;23.00;36.23;102228.50;4989082;28;20121;-67
2024/02/03 10:46:50;;;;;;;3.17;1.42;;;;;;;22.80;36.62;102212.03;4987545;28;20073;-67
2024/02/03 10:49:17;;;;;;;2.10;1.38;;;;;;;22.96;36.50;102224.50;4987532;28;20141;-66
2024/02/03 10:51:46;;;;;;;1.23;0.95;;;;;;;22.87;36.71;102230.81;4939202;28;20046;-66
2024/02/03 10:54:17;;;;;;;1.67;1.10;;;;;;;22.82;36.72;102228.66;5001967;28;20038;-67
2024/02/03 10:56:47;;;;;;;1.45;1.10;;;;;;;22.77;36.69;102216.81;4952260;28;21852;-67
2024/02/03 10:59:22;;;;;;;5.43;1.40;;;;;;;22.72;36.98;102212.00;5000163;28;21389;-67
2024/02/03 11:01:48;;;;;;;5.88;1.00;;;;;;;22.73;36.79;102216.34;4936830;28;20039;-65
2024/02/03 11:04:14;;;;;;;1.88;1.05;;;;;;;22.64;36.90;102198.75;4968278;28;20069;-67
2024/02/03 11:06:40;;;;;;;1.73;1.17;;;;;;;22.80;36.77;102216.50;4988370;28;20042;-67
2024/02/03 11:09:17;;;;;;;1.73;1.00;;;;;;;22.91;36.83;102221.50;4982862;28;20041;-64
2024/02/03 11:11:45;;;;;;;4.30;1.33;;;;;;;22.81;36.96;102226.97;4968893;28;20038;-66
2024/02/03 11:14:19;;;;;;;3.42;1.48;;;;;;;22.82;36.79;102220.69;5005715;28;20042;-67
2024/02/03 11:16:55;;;;;;;1.58;1.25;;;;;;;22.66;37.43;102225.13;4971739;28;20045;-67
2024/02/03 11:19:31;;;;;;;2.67;1.20;;;;;;;22.69;37.12;102222.97;4960111;28;20050;-65
2024/02/03 11:21:59;;;;;;;3.70;1.15;;;;;;;22.72;37.09;102230.59;4987163;28;20089;-65